ADDS TAF Data INFO
IDs: Format: Raw Decoded Include METARs

Data at: 0746 UTC 20 Nov 2017

KRIC 200540Z 2006/2106 24006KT P6SM SKC
  FM201800 24006KT P6SM SKC